Time;durP1;ratioP1;P1;durP2;ratioP2;P2;SDS_P1;SDS_P2;PMS_P1;PMS_P2;Temp;Humidity;BMP_temperature;BMP_pressure;BME280_temperature;BME280_humidity;BME280_pressure;Samples;Min_cycle;Max_cycle;Signal;HPM_P1;HPM_P2
2021/06/25 00:01:31;;;;;;;17.58;3.55;;;41.00;26.90;;;;;;5079141;28;20076;-69
2021/06/25 00:03:59;;;;;;;18.05;3.65;;;40.90;27.20;;;;;;5075413;28;20069;-69
2021/06/25 00:06:26;;;;;;;9.88;3.20;;;41.10;27.30;;;;;;5079276;28;20550;-67
2021/06/25 00:08:52;;;;;;;22.00;3.80;;;41.20;26.40;;;;;;5059537;28;20081;-69
2021/06/25 00:11:19;;;;;;;11.65;3.17;;;41.30;26.30;;;;;;5072663;28;20111;-68
2021/06/25 00:13:46;;;;;;;14.43;3.47;;;41.50;26.60;;;;;;5066802;28;20085;-68
2021/06/25 00:16:12;;;;;;;10.85;2.75;;;41.50;25.90;;;;;;5077499;28;20460;-69
2021/06/25 00:18:39;;;;;;;16.73;3.15;;;41.70;26.30;;;;;;5074478;28;20189;-69
2021/06/25 00:21:06;;;;;;;14.70;3.33;;;41.80;25.80;;;;;;5073867;28;20121;-68
2021/06/25 00:23:32;;;;;;;12.13;3.40;;;41.90;24.60;;;;;;5079875;28;20156;-68
2021/06/25 00:25:59;;;;;;;11.48;3.70;;;42.00;25.90;;;;;;5073866;28;20521;-68
2021/06/25 00:28:26;;;;;;;9.35;3.40;;;42.00;27.00;;;;;;5071782;28;20092;-69
2021/06/25 00:30:53;;;;;;;13.68;3.47;;;42.00;26.90;;;;;;5075623;28;20186;-69
2021/06/25 00:33:19;;;;;;;14.57;3.15;;;42.00;26.20;;;;;;5071577;28;20530;-69
2021/06/25 00:35:46;;;;;;;18.08;3.60;;;42.00;26.90;;;;;;5069113;28;20089;-71
2021/06/25 00:38:13;;;;;;;16.80;3.67;;;42.00;26.50;;;;;;5070277;28;20066;-70
2021/06/25 00:40:45;;;;;;;12.20;3.25;;;41.80;26.50;;;;;;5077393;28;20087;-70
2021/06/25 00:43:12;;;;;;;20.48;3.65;;;41.70;27.00;;;;;;5098010;28;20073;-71
2021/06/25 00:45:38;;;;;;;11.70;3.08;;;41.60;27.20;;;;;;5077607;28;20196;-70
2021/06/25 00:48:05;;;;;;;18.85;3.35;;;41.50;27.40;;;;;;5072569;28;20073;-71
2021/06/25 00:50:34;;;;;;;15.52;3.20;;;41.40;27.60;;;;;;5076356;28;20142;-69
2021/06/25 00:53:01;;;;;;;15.43;3.35;;;41.30;28.00;;;;;;5078789;28;20076;-71
2021/06/25 00:55:41;;;;;;;17.95;3.38;;;41.20;27.90;;;;;;5094330;28;20076;-70
2021/06/25 00:58:12;;;;;;;13.20;3.03;;;41.10;27.60;;;;;;5077404;28;20075;-70
2021/06/25 01:00:40;;;;;;;13.23;2.72;;;41.10;28.20;;;;;;5075560;28;20071;-71
2021/06/25 01:03:06;;;;;;;13.32;2.85;;;40.90;27.50;;;;;;5077817;28;20518;-70
2021/06/25 01:05:34;;;;;;;11.27;3.38;;;40.70;27.60;;;;;;5073426;28;20131;-71
2021/06/25 01:08:00;;;;;;;14.82;2.60;;;40.70;27.80;;;;;;5074425;28;20073;-69
2021/06/25 01:10:27;;;;;;;9.65;2.80;;;40.70;28.00;;;;;;5076864;28;20105;-68
2021/06/25 01:12:54;;;;;;;12.88;2.80;;;40.50;27.80;;;;;;5076025;28;20539;-69
2021/06/25 01:15:20;;;;;;;13.40;3.15;;;40.30;27.90;;;;;;5075107;28;20069;-70
2021/06/25 01:17:47;;;;;;;14.73;2.92;;;40.40;28.20;;;;;;5075177;28;20581;-70
2021/06/25 01:20:22;;;;;;;17.23;3.40;;;40.40;28.30;;;;;;5074573;28;20080;-70
2021/06/25 01:22:49;;;;;;;;;;;40.20;28.30;;;;;;5077794;28;20159;-70
2021/06/25 01:25:17;;;;;;;15.88;3.00;;;40.10;28.40;;;;;;5073307;28;20063;-71
2021/06/25 01:27:45;;;;;;;12.48;3.30;;;39.90;28.60;;;;;;5078249;28;20171;-70
2021/06/25 01:30:22;;;;;;;13.07;3.17;;;40.00;28.70;;;;;;5073905;28;20097;-70
2021/06/25 01:32:50;;;;;;;19.52;3.42;;;40.00;28.70;;;;;;5081467;28;20480;-71
2021/06/25 01:35:17;;;;;;;11.43;3.03;;;39.80;28.70;;;;;;5075547;28;20118;-70
2021/06/25 01:37:44;;;;;;;17.30;3.08;;;39.80;28.80;;;;;;5075330;28;20085;-70
2021/06/25 01:40:13;;;;;;;15.52;3.08;;;39.70;28.80;;;;;;5075336;28;20069;-70
2021/06/25 01:42:41;;;;;;;17.38;3.30;;;39.60;29.10;;;;;;5091485;28;20456;-69
2021/06/25 01:45:17;;;;;;;24.27;4.22;;;39.60;29.00;;;;;;5076390;28;20530;-70
2021/06/25 01:47:45;;;;;;;18.33;3.25;;;39.60;29.10;;;;;;5081028;28;20163;-69
2021/06/25 01:50:15;;;;;;;18.92;3.95;;;39.60;29.10;;;;;;5075443;28;20105;-69
2021/06/25 01:52:47;;;;;;;15.02;3.42;;;39.50;29.10;;;;;;5073078;28;20077;-70
2021/06/25 01:55:14;;;;;;;13.52;4.03;;;39.50;29.10;;;;;;5079583;28;20071;-71
2021/06/25 01:57:41;;;;;;;21.10;4.07;;;39.50;29.30;;;;;;5075473;28;20069;-70
2021/06/25 02:02:51;;;;;;;21.02;3.83;;;39.40;29.60;;;;;;5066238;28;20140;-68
2021/06/25 02:05:17;;;;;;;19.48;3.85;;;39.30;29.70;;;;;;5057166;28;20146;-67
2021/06/25 02:07:44;;;;;;;16.08;3.38;;;39.30;29.50;;;;;;5069513;28;20066;-68
2021/06/25 02:10:11;;;;;;;18.50;4.05;;;39.20;29.50;;;;;;5075857;28;20548;-67
2021/06/25 02:12:39;;;;;;;27.60;6.55;;;39.20;29.60;;;;;;5074111;28;20096;-67
2021/06/25 02:15:08;;;;;;;15.55;3.60;;;39.20;29.80;;;;;;5076000;28;20428;-67
2021/06/25 02:17:35;;;;;;;16.75;3.90;;;39.10;29.80;;;;;;5055722;28;20164;-67
2021/06/25 02:20:03;;;;;;;15.65;3.83;;;39.00;29.90;;;;;;5081339;28;20097;-66
2021/06/25 02:22:29;;;;;;;14.50;2.85;;;38.90;30.00;;;;;;5059574;28;20425;-67
2021/06/25 02:24:56;;;;;;;16.35;2.67;;;38.80;24.90;;;;;;5078201;28;20208;-67
2021/06/25 02:27:22;;;;;;;18.98;2.60;;;38.70;23.70;;;;;;5061332;28;20141;-67
2021/06/25 02:29:48;;;;;;;16.45;2.55;;;38.60;21.10;;;;;;5081854;28;20080;-67
2021/06/25 02:32:15;;;;;;;18.00;2.53;;;38.60;21.30;;;;;;5083434;28;20080;-67
2021/06/25 02:34:42;;;;;;;11.63;2.33;;;38.60;21.20;;;;;;5078453;28;20097;-66
2021/06/25 02:37:08;;;;;;;17.65;2.75;;;38.50;21.70;;;;;;5076560;28;20478;-67
2021/06/25 02:39:35;;;;;;;24.40;2.67;;;38.50;20.80;;;;;;5082057;28;20061;-68
2021/06/25 02:42:04;;;;;;;19.95;2.35;;;38.40;20.60;;;;;;5062780;28;20076;-71
2021/06/25 02:44:31;;;;;;;14.55;2.60;;;38.30;20.30;;;;;;5061694;28;20077;-66
2021/06/25 02:46:58;;;;;;;13.95;2.70;;;38.20;23.30;;;;;;5085760;28;20088;-68
2021/06/25 02:49:24;;;;;;;15.73;3.30;;;38.10;29.20;;;;;;5064674;28;20077;-68
2021/06/25 02:51:51;;;;;;;11.40;3.83;;;38.00;29.70;;;;;;5077457;28;20103;-68
2021/06/25 02:54:17;;;;;;;14.98;3.42;;;38.00;30.70;;;;;;5059869;28;20444;-68
2021/06/25 02:56:44;;;;;;;15.73;4.10;;;37.90;30.80;;;;;;5077562;28;20081;-68
2021/06/25 02:59:10;;;;;;;19.30;3.75;;;37.80;31.50;;;;;;5060197;28;20080;-69
2021/06/25 03:01:37;;;;;;;20.15;4.65;;;37.80;31.80;;;;;;5082776;28;20123;-67
2021/06/25 03:04:04;;;;;;;15.55;4.07;;;37.70;32.00;;;;;;5078576;28;20073;-67
2021/06/25 03:06:30;;;;;;;13.15;3.65;;;37.70;32.30;;;;;;5076398;28;20072;-67
2021/06/25 03:08:57;;;;;;;13.27;3.20;;;37.60;32.30;;;;;;5078158;28;20073;-67
2021/06/25 03:11:24;;;;;;;18.73;2.95;;;37.50;32.30;;;;;;5078674;28;20548;-67
2021/06/25 03:13:50;;;;;;;10.23;2.47;;;37.40;25.40;;;;;;5060695;28;20076;-67
2021/06/25 03:16:17;;;;;;;11.68;1.90;;;37.30;22.30;;;;;;5062517;28;20530;-67
2021/06/25 03:18:43;;;;;;;16.00;2.03;;;37.30;21.50;;;;;;5076143;28;20135;-67
2021/06/25 03:21:10;;;;;;;13.82;2.38;;;37.30;21.60;;;;;;5079833;28;20073;-68
2021/06/25 03:23:36;;;;;;;14.70;2.75;;;37.20;21.30;;;;;;5076718;28;20504;-67
2021/06/25 03:26:03;;;;;;;16.10;2.50;;;37.20;21.20;;;;;;5065147;28;20073;-66
2021/06/25 03:28:30;;;;;;;10.25;2.05;;;37.10;20.90;;;;;;5076883;28;20552;-68
2021/06/25 03:30:58;;;;;;;13.10;2.30;;;37.10;20.80;;;;;;5080439;28;20093;-67
2021/06/25 03:33:24;;;;;;;10.05;2.03;;;37.00;21.10;;;;;;5078132;28;20076;-67
2021/06/25 03:35:51;;;;;;;12.15;2.88;;;37.00;21.30;;;;;;5075894;28;20073;-67
2021/06/25 03:38:17;;;;;;;8.40;2.20;;;36.90;21.10;;;;;;5076682;28;20547;-67
2021/06/25 03:40:44;;;;;;;9.85;2.35;;;36.90;21.00;;;;;;5078322;28;20073;-68
2021/06/25 03:43:10;;;;;;;8.13;2.22;;;36.90;21.10;;;;;;5062287;28;20530;-67
2021/06/25 03:45:37;;;;;;;10.10;2.20;;;36.80;20.70;;;;;;5081382;28;20072;-66
2021/06/25 03:48:04;;;;;;;12.30;2.30;;;36.70;20.40;;;;;;5079893;28;20187;-70
2021/06/25 03:50:31;;;;;;;6.63;2.20;;;36.60;20.40;;;;;;5073043;28;20112;-67
2021/06/25 03:52:58;;;;;;;11.98;2.35;;;36.60;20.30;;;;;;5080498;28;20095;-67
2021/06/25 03:55:26;;;;;;;11.57;1.98;;;36.60;20.50;;;;;;5076836;28;20424;-66
2021/06/25 03:57:53;;;;;;;16.83;2.35;;;36.50;20.20;;;;;;5058928;28;20073;-68
2021/06/25 04:00:20;;;;;;;17.45;2.28;;;36.50;20.60;;;;;;5081361;28;20072;-66
2021/06/25 04:02:47;;;;;;;13.77;2.30;;;36.40;20.50;;;;;;5076611;28;20120;-67
2021/06/25 04:05:17;;;;;;;10.88;2.22;;;36.30;19.90;;;;;;5080898;28;20178;-67
2021/06/25 04:07:44;;;;;;;13.20;2.05;;;36.30;20.10;;;;;;5063047;28;20428;-70
2021/06/25 04:10:13;;;;;;;10.88;2.05;;;36.30;19.70;;;;;;5078361;28;20069;-67
2021/06/25 04:12:39;;;;;;;8.27;1.77;;;36.30;19.90;;;;;;5058421;28;20084;-67
2021/06/25 04:15:07;;;;;;;7.22;1.83;;;36.20;18.80;;;;;;5081226;28;20072;-66
2021/06/25 04:17:34;;;;;;;12.57;2.70;;;36.10;18.90;;;;;;5081546;28;20105;-66
2021/06/25 04:20:00;;;;;;;9.60;3.03;;;36.10;18.80;;;;;;5076570;28;20065;-67
2021/06/25 04:22:27;;;;;;;9.57;2.70;;;36.00;18.90;;;;;;5077538;28;20073;-67
2021/06/25 04:24:54;;;;;;;8.20;1.83;;;35.90;19.00;;;;;;5062308;28;20167;-67
2021/06/25 04:27:21;;;;;;;8.35;2.65;;;35.90;18.70;;;;;;5078812;28;20115;-67
2021/06/25 04:29:48;;;;;;;9.10;1.95;;;35.90;19.10;;;;;;5074339;28;20073;-67
2021/06/25 04:32:16;;;;;;;8.85;2.10;;;35.80;18.80;;;;;;5061810;28;20101;-67
2021/06/25 04:34:43;;;;;;;10.15;3.85;;;35.70;18.40;;;;;;5076215;28;20096;-66
2021/06/25 04:37:12;;;;;;;10.63;2.38;;;35.60;18.10;;;;;;5077712;28;20080;-67
2021/06/25 04:39:38;;;;;;;6.40;1.95;;;35.60;18.20;;;;;;5079778;28;20069;-66
2021/06/25 04:42:06;;;;;;;6.93;1.67;;;35.50;18.40;;;;;;5075882;28;20077;-67
2021/06/25 04:44:32;;;;;;;9.80;1.88;;;35.40;18.10;;;;;;5077663;28;20091;-66
2021/06/25 04:46:59;;;;;;;6.82;1.67;;;35.30;17.70;;;;;;5076528;28;20557;-66
2021/06/25 04:49:25;;;;;;;11.18;1.63;;;35.20;17.30;;;;;;5077155;28;20095;-67
2021/06/25 04:51:52;;;;;;;7.05;1.85;;;35.10;17.40;;;;;;5074436;28;20099;-66
2021/06/25 04:54:18;;;;;;;9.38;2.22;;;35.00;17.20;;;;;;5076136;28;20073;-68
2021/06/25 04:56:45;;;;;;;9.88;1.73;;;34.90;17.50;;;;;;5060463;28;20127;-67
2021/06/25 04:59:11;;;;;;;11.20;2.47;;;34.80;17.60;;;;;;5076145;28;20215;-66
2021/06/25 05:01:38;;;;;;;9.65;2.03;;;34.80;17.50;;;;;;5078919;28;20120;-66
2021/06/25 05:04:04;;;;;;;5.85;1.83;;;34.80;17.60;;;;;;5077103;28;20647;-67
2021/06/25 05:06:31;;;;;;;5.32;1.58;;;34.80;17.80;;;;;;5056754;28;20076;-67
2021/06/25 05:08:57;;;;;;;6.10;2.08;;;34.70;17.90;;;;;;5074490;28;20675;-66
2021/06/25 05:11:24;;;;;;;7.13;2.40;;;34.70;18.10;;;;;;5078125;28;20093;-67
2021/06/25 05:13:50;;;;;;;9.50;2.40;;;34.70;18.20;;;;;;5057231;28;20077;-68
2021/06/25 05:16:17;;;;;;;4.32;1.85;;;34.60;18.60;;;;;;5075135;28;20156;-68
2021/06/25 05:18:43;;;;;;;11.20;2.15;;;34.60;18.80;;;;;;5076321;28;20077;-69
2021/06/25 05:21:10;;;;;;;10.63;1.60;;;34.50;18.90;;;;;;5076356;28;20534;-70
2021/06/25 05:23:36;;;;;;;7.03;1.90;;;34.40;19.50;;;;;;5077581;28;20073;-69
2021/06/25 05:26:03;;;;;;;7.88;1.92;;;34.40;19.30;;;;;;5063975;28;20104;-71
2021/06/25 05:28:30;;;;;;;7.28;1.50;;;34.20;19.10;;;;;;5078436;28;20075;-71
2021/06/25 05:30:56;;;;;;;7.20;1.63;;;34.20;18.90;;;;;;5063775;28;20096;-69
2021/06/25 05:33:23;;;;;;;7.25;1.25;;;34.20;18.60;;;;;;5074460;28;20075;-68
2021/06/25 05:35:50;;;;;;;6.68;2.03;;;34.20;18.80;;;;;;5055303;28;20493;-66
2021/06/25 05:38:17;;;;;;;8.65;2.40;;;34.20;18.60;;;;;;5073629;28;20066;-67
2021/06/25 05:40:44;;;;;;;6.75;2.55;;;34.20;18.60;;;;;;5077256;28;20568;-68
2021/06/25 05:43:14;;;;;;;8.98;2.03;;;34.20;18.70;;;;;;5061651;28;20415;-69
2021/06/25 05:45:45;;;;;;;5.53;1.73;;;34.20;19.00;;;;;;5080700;28;21467;-70
2021/06/25 05:48:15;;;;;;;3.53;1.85;;;34.20;18.30;;;;;;5056236;28;20418;-70
2021/06/25 05:50:42;;;;;;;4.68;1.63;;;34.10;18.10;;;;;;5059172;28;20112;-68
2021/06/25 05:53:09;;;;;;;9.63;1.52;;;34.10;17.70;;;;;;5061062;28;20077;-70
2021/06/25 05:55:36;;;;;;;5.70;1.20;;;34.10;17.40;;;;;;5063635;28;20160;-69
2021/06/25 05:58:03;;;;;;;5.28;1.50;;;34.10;16.70;;;;;;5062502;28;20080;-68
2021/06/25 06:00:29;;;;;;;3.97;1.20;;;34.10;16.60;;;;;;5077960;28;20069;-71
2021/06/25 06:02:59;;;;;;;4.38;1.23;;;34.10;16.50;;;;;;5073150;28;20635;-68
2021/06/25 06:05:46;;;;;;;4.53;1.50;;;34.10;16.40;;;;;;5063857;28;20080;-69
2021/06/25 06:08:19;;;;;;;5.75;1.27;;;34.00;16.20;;;;;;5045979;28;20491;-69
2021/06/25 06:10:45;;;;;;;3.05;1.20;;;34.00;18.20;;;;;;5080506;28;20100;-69
2021/06/25 06:13:21;;;;;;;6.20;1.30;;;34.00;17.10;;;;;;5078631;28;20080;-69
2021/06/25 06:15:48;;;;;;;9.35;1.60;;;34.00;17.50;;;;;;5077965;28;20069;-68
2021/06/25 06:18:23;;;;;;;13.88;1.75;;;34.00;18.60;;;;;;5060049;28;20082;-71
2021/06/25 06:20:50;;;;;;;12.23;1.40;;;33.90;19.30;;;;;;5076803;28;20160;-69
2021/06/25 06:31:40;;;;;;;5.68;1.58;;;33.50;20.70;;;;;;5080331;28;20100;-67
2021/06/25 06:34:11;;;;;;;4.75;1.55;;;33.40;20.90;;;;;;5075469;28;20593;-68
2021/06/25 06:36:43;;;;;;;4.65;1.30;;;33.30;20.80;;;;;;5076702;28;20076;-70
2021/06/25 06:39:10;;;;;;;9.13;1.98;;;33.20;20.30;;;;;;5054175;28;20207;-67
2021/06/25 06:41:40;;;;;;;2.90;1.48;;;33.20;20.20;;;;;;5082331;28;20517;-68
2021/06/25 06:44:11;;;;;;;7.22;1.48;;;33.10;19.60;;;;;;5077707;28;20077;-68
2021/06/25 06:46:39;;;;;;;7.18;1.63;;;33.20;18.60;;;;;;5078093;28;20116;-68
2021/06/25 06:49:10;;;;;;;4.40;1.40;;;33.20;18.50;;;;;;5059034;28;20077;-68
2021/06/25 06:51:39;;;;;;;3.30;1.20;;;33.20;18.00;;;;;;5075568;28;20162;-68
2021/06/25 06:54:06;;;;;;;8.98;1.23;;;33.30;17.70;;;;;;5074644;28;20105;-67
2021/06/25 06:56:33;;;;;;;2.15;1.00;;;33.30;17.50;;;;;;5082925;28;20119;-66
2021/06/25 06:59:00;;;;;;;6.75;1.10;;;33.50;17.40;;;;;;5081411;28;20085;-66
2021/06/25 07:01:29;;;;;;;5.07;1.15;;;33.60;16.60;;;;;;5076677;28;20121;-64
2021/06/25 07:03:57;;;;;;;4.82;1.23;;;33.80;16.80;;;;;;5076899;28;20080;-66
2021/06/25 07:06:23;;;;;;;4.65;1.15;;;33.90;16.90;;;;;;5058965;28;20084;-65
2021/06/25 07:08:50;;;;;;;4.75;1.25;;;34.00;17.20;;;;;;5061538;28;20594;-65
2021/06/25 07:11:17;;;;;;;2.50;1.20;;;34.00;17.20;;;;;;5077486;28;20096;-65
2021/06/25 07:13:43;;;;;;;3.35;1.10;;;34.00;17.00;;;;;;5079445;28;20081;-64
2021/06/25 07:16:14;;;;;;;3.63;1.20;;;34.10;16.70;;;;;;5074754;28;20088;-64
2021/06/25 07:18:41;;;;;;;3.90;1.27;;;34.00;16.10;;;;;;5076240;28;20080;-65
2021/06/25 07:21:08;;;;;;;4.60;1.50;;;34.00;15.90;;;;;;5079016;28;20602;-63
2021/06/25 07:23:35;;;;;;;4.20;1.45;;;34.10;15.70;;;;;;5057372;28;20069;-65
2021/06/25 07:26:02;;;;;;;2.60;1.00;;;34.20;15.30;;;;;;5057305;28;20218;-65
2021/06/25 07:28:29;;;;;;;4.15;1.15;;;34.10;14.80;;;;;;5057058;28;20077;-64
2021/06/25 07:30:55;;;;;;;3.95;1.00;;;34.00;14.80;;;;;;5059853;28;20085;-65
2021/06/25 07:33:22;;;;;;;6.85;1.10;;;34.00;14.80;;;;;;5077843;28;20080;-65
2021/06/25 07:35:49;;;;;;;4.25;1.27;;;34.00;15.30;;;;;;5075879;28;20122;-65
2021/06/25 07:38:16;;;;;;;1.25;0.90;;;34.00;14.70;;;;;;5078495;28;20102;-65
2021/06/25 07:40:46;;;;;;;1.95;1.20;;;33.90;14.50;;;;;;5057855;28;20096;-66
2021/06/25 07:43:12;;;;;;;4.95;1.20;;;33.90;14.30;;;;;;5075192;28;20105;-65
2021/06/25 07:45:39;;;;;;;1.52;1.00;;;33.90;14.40;;;;;;5076090;28;20607;-65
2021/06/25 07:48:06;;;;;;;3.65;1.33;;;33.90;14.60;;;;;;5073101;28;20153;-65
2021/06/25 07:50:32;;;;;;;1.80;0.90;;;33.90;14.40;;;;;;5061560;28;20089;-65
2021/06/25 07:52:59;;;;;;;3.70;1.52;;;33.80;14.40;;;;;;5079606;28;20114;-65
2021/06/25 07:55:26;;;;;;;4.03;1.40;;;33.80;14.40;;;;;;5078073;28;20134;-63
2021/06/25 07:57:52;;;;;;;3.90;1.02;;;33.80;14.30;;;;;;5076282;28;20064;-66
2021/06/25 08:00:19;;;;;;;3.35;1.00;;;33.70;14.30;;;;;;5057284;28;20076;-65
2021/06/25 08:02:46;;;;;;;3.75;0.90;;;33.70;14.20;;;;;;5055886;28;20121;-65
2021/06/25 08:05:12;;;;;;;6.90;1.65;;;33.60;14.10;;;;;;5059839;28;20073;-65
2021/06/25 08:07:40;;;;;;;2.33;0.95;;;33.60;13.90;;;;;;5055851;28;20105;-66
2021/06/25 08:10:07;;;;;;;6.22;1.10;;;33.80;14.10;;;;;;5073681;28;20095;-65
2021/06/25 08:12:34;;;;;;;5.30;1.15;;;33.70;13.50;;;;;;5071903;28;20168;-66
2021/06/25 08:15:00;;;;;;;4.53;1.25;;;33.70;13.50;;;;;;5077621;28;20506;-66
2021/06/25 08:17:27;;;;;;;3.15;0.90;;;33.70;13.60;;;;;;5076966;28;20100;-65
2021/06/25 08:19:54;;;;;;;1.48;1.00;;;33.50;13.30;;;;;;5077611;28;20126;-66
2021/06/25 08:22:21;;;;;;;3.75;1.10;;;33.50;13.40;;;;;;5074708;28;20115;-66
2021/06/25 08:24:48;;;;;;;6.22;0.98;;;33.50;13.80;;;;;;5075130;28;20073;-66
2021/06/25 08:27:14;;;;;;;2.25;0.88;;;33.50;13.90;;;;;;5076321;28;20402;-65
2021/06/25 08:29:41;;;;;;;5.45;1.10;;;33.40;13.90;;;;;;5076529;28;20497;-66
2021/06/25 08:32:08;;;;;;;2.22;0.90;;;33.40;14.00;;;;;;5076714;28;20093;-66
2021/06/25 08:34:34;;;;;;;4.05;1.20;;;33.30;14.10;;;;;;5060128;28;20126;-65
2021/06/25 08:37:01;;;;;;;2.47;1.20;;;33.30;14.20;;;;;;5073270;28;20493;-65
2021/06/25 08:39:30;;;;;;;1.65;0.80;;;33.30;14.40;;;;;;5060554;28;20065;-66
2021/06/25 08:42:01;;;;;;;4.40;1.30;;;33.30;14.10;;;;;;5076678;28;20148;-66
2021/06/25 08:44:31;;;;;;;3.95;1.05;;;33.30;14.20;;;;;;5075882;28;20642;-65
2021/06/25 08:46:57;;;;;;;1.67;0.95;;;33.30;14.40;;;;;;5074498;28;20073;-65
2021/06/25 08:49:27;;;;;;;3.72;1.10;;;33.30;14.30;;;;;;5075415;28;20544;-67
2021/06/25 08:51:54;;;;;;;4.75;1.25;;;33.20;14.30;;;;;;5075967;28;20100;-65
2021/06/25 08:54:20;;;;;;;6.90;1.00;;;33.10;14.40;;;;;;5077095;28;20568;-66
2021/06/25 08:56:47;;;;;;;3.13;1.38;;;32.90;15.10;;;;;;5071954;28;20122;-66
2021/06/25 08:59:19;;;;;;;4.28;1.10;;;32.90;14.80;;;;;;5074808;28;20123;-67
2021/06/25 09:01:50;;;;;;;4.15;1.40;;;32.90;14.70;;;;;;5073492;28;20615;-65
2021/06/25 09:04:34;;;;;;;2.97;1.02;;;32.90;15.00;;;;;;5073178;28;20155;-65
2021/06/25 09:07:02;;;;;;;5.78;1.27;;;32.90;14.60;;;;;;5071362;28;20069;-66
2021/06/25 09:09:40;;;;;;;4.32;1.10;;;32.80;14.80;;;;;;5060099;28;20104;-64
2021/06/25 09:12:23;;;;;;;4.45;1.15;;;32.80;14.50;;;;;;5072651;28;20093;-65
2021/06/25 09:15:07;;;;;;;4.30;1.02;;;32.70;14.40;;;;;;5075051;28;20068;-65
2021/06/25 09:17:52;;;;;;;9.25;1.23;;;32.70;14.50;;;;;;5050665;28;20411;-65
2021/06/25 09:20:39;;;;;;;4.35;1.10;;;32.70;14.30;;;;;;5058460;28;20463;-66
2021/06/25 09:23:10;;;;;;;;;;;32.70;13.20;;;;;;5071177;28;20098;-64
2021/06/25 09:26:09;;;;;;;4.28;1.00;;;32.60;12.50;;;;;;5071516;28;20016;-65
2021/06/25 09:28:40;;;;;;;1.80;0.60;;;32.70;12.40;;;;;;5037908;28;20096;-65
2021/06/25 09:31:22;;;;;;;4.38;1.00;;;32.70;12.20;;;;;;5078259;28;20093;-65
2021/06/25 09:33:51;;;;;;;2.08;0.73;;;32.70;12.30;;;;;;5078753;28;20083;-66
2021/06/25 09:36:23;;;;;;;8.02;1.10;;;32.70;12.70;;;;;;5077277;28;20190;-66
2021/06/25 09:39:06;;;;;;;7.72;1.10;;;32.60;15.20;;;;;;5073355;28;20065;-65
2021/06/25 09:41:34;;;;;;;8.18;1.38;;;32.40;16.50;;;;;;5046126;28;20084;-66
2021/06/25 09:44:08;;;;;;;9.80;2.08;;;32.40;16.90;;;;;;5059853;28;20074;-65
2021/06/25 09:46:41;;;;;;;9.32;1.50;;;32.10;17.30;;;;;;5078988;28;20128;-65
2021/06/25 09:49:16;;;;;;;7.13;1.52;;;32.00;17.90;;;;;;5080994;28;20069;-65
2021/06/25 09:52:03;;;;;;;5.47;1.45;;;32.00;18.50;;;;;;5078816;28;20149;-65
2021/06/25 09:54:31;;;;;;;6.82;1.42;;;31.90;18.50;;;;;;5075139;28;20065;-65
2021/06/25 09:57:14;;;;;;;6.28;1.45;;;31.80;18.50;;;;;;5078362;28;20083;-66
2021/06/25 10:02:22;;;;;;;4.28;1.10;;;31.60;17.00;;;;;;5077040;28;20104;-65
2021/06/25 10:05:02;;;;;;;2.28;0.75;;;31.50;15.60;;;;;;5062379;28;20109;-66
2021/06/25 10:07:30;;;;;;;4.93;0.90;;;31.50;14.90;;;;;;5079232;28;20144;-65
2021/06/25 10:10:02;;;;;;;6.88;0.80;;;31.50;15.00;;;;;;5075285;28;20077;-66
2021/06/25 10:12:28;;;;;;;4.40;0.85;;;31.50;14.40;;;;;;5076747;28;20093;-66
2021/06/25 10:14:55;;;;;;;7.47;0.90;;;31.50;14.30;;;;;;5066229;28;20098;-65
2021/06/25 10:17:29;;;;;;;3.90;0.85;;;31.50;14.50;;;;;;5076586;28;20530;-65
2021/06/25 10:20:07;;;;;;;3.65;0.60;;;31.50;14.30;;;;;;5074006;28;20587;-66
2021/06/25 10:22:35;;;;;;;3.30;0.95;;;31.50;14.60;;;;;;5077129;28;20433;-66
2021/06/25 10:25:06;;;;;;;2.90;0.80;;;31.50;14.30;;;;;;5077125;28;20073;-66
2021/06/25 10:27:33;;;;;;;2.22;0.85;;;31.50;14.40;;;;;;5077924;28;20099;-66
2021/06/25 10:30:00;;;;;;;1.23;0.88;;;31.40;15.00;;;;;;5059962;28;20104;-68
2021/06/25 10:32:26;;;;;;;3.03;1.17;;;31.30;15.10;;;;;;5078228;28;20104;-66
2021/06/25 10:34:53;;;;;;;3.80;1.15;;;31.30;15.30;;;;;;5074814;28;20069;-65
2021/06/25 10:37:28;;;;;;;6.85;1.48;;;31.30;15.20;;;;;;5081496;28;20502;-66
2021/06/25 10:39:54;;;;;;;2.90;1.00;;;31.20;16.40;;;;;;5059898;28;20080;-67
2021/06/25 10:42:21;;;;;;;8.52;1.23;;;31.20;16.80;;;;;;5076815;28;20066;-66
2021/06/25 10:44:54;;;;;;;2.08;1.25;;;31.00;17.00;;;;;;5075351;28;20072;-66
2021/06/25 10:47:33;;;;;;;7.70;1.60;;;30.90;17.40;;;;;;5076485;28;20069;-66
2021/06/25 10:50:02;;;;;;;6.82;1.20;;;30.90;17.70;;;;;;5076427;28;20146;-66
2021/06/25 10:52:32;;;;;;;5.53;1.30;;;30.60;17.60;;;;;;5076530;28;20093;-66
2021/06/25 10:55:13;;;;;;;6.53;1.20;;;30.70;17.80;;;;;;5073002;28;20081;-66
2021/06/25 10:57:52;;;;;;;5.13;1.00;;;30.60;17.60;;;;;;5073524;28;20410;-66
2021/06/25 11:00:26;;;;;;;7.05;1.05;;;30.60;17.20;;;;;;5072577;28;20071;-66
2021/06/25 11:02:55;;;;;;;6.97;1.10;;;30.50;16.40;;;;;;5056831;28;20119;-67
2021/06/25 11:05:27;;;;;;;4.70;1.20;;;30.40;17.20;;;;;;5076645;28;20418;-67
2021/06/25 11:08:01;;;;;;;4.65;1.42;;;30.40;17.10;;;;;;5075480;28;20073;-66
2021/06/25 11:10:34;;;;;;;4.85;1.00;;;30.30;17.50;;;;;;5074165;28;20096;-66
2021/06/25 11:13:13;;;;;;;5.57;1.70;;;30.30;17.80;;;;;;5079295;28;20164;-66
2021/06/25 11:15:48;;;;;;;6.25;1.20;;;30.20;17.90;;;;;;5077256;28;20085;-66
2021/06/25 11:18:16;;;;;;;6.72;1.50;;;30.10;17.90;;;;;;5059132;28;20126;-66
2021/06/25 11:20:53;;;;;;;5.82;1.67;;;30.00;18.40;;;;;;5079143;28;20447;-66
2021/06/25 11:23:23;;;;;;;6.03;1.70;;;29.90;18.80;;;;;;5074318;28;20064;-65
2021/06/25 11:25:59;;;;;;;12.02;1.98;;;29.90;18.50;;;;;;5075418;28;20076;-65
2021/06/25 11:28:40;;;;;;;4.78;2.35;;;29.80;19.90;;;;;;5076066;28;20098;-65
2021/06/25 11:31:18;;;;;;;6.28;2.03;;;29.70;19.40;;;;;;5075766;28;20093;-66
2021/06/25 11:33:48;;;;;;;8.27;1.90;;;29.70;20.00;;;;;;5076886;28;20081;-66
2021/06/25 11:36:21;;;;;;;3.20;1.70;;;29.70;19.70;;;;;;5062189;28;20514;-66
2021/06/25 11:38:54;;;;;;;3.97;1.90;;;29.60;20.10;;;;;;5052705;28;20544;-65
2021/06/25 11:41:22;;;;;;;8.82;2.05;;;29.50;20.20;;;;;;5077658;28;20452;-66
2021/06/25 11:43:50;;;;;;;7.43;2.00;;;29.50;19.90;;;;;;5054902;28;20078;-66
2021/06/25 11:46:18;;;;;;;5.30;2.20;;;29.40;19.60;;;;;;5071176;28;20138;-66
2021/06/25 11:48:45;;;;;;;7.45;1.92;;;29.40;20.10;;;;;;5073256;28;20160;-65
2021/06/25 11:51:13;;;;;;;10.65;2.50;;;29.40;20.70;;;;;;5071363;28;20104;-66
2021/06/25 11:53:44;;;;;;;9.07;1.75;;;29.30;21.00;;;;;;5072486;28;20073;-66
2021/06/25 11:56:24;;;;;;;8.70;2.13;;;29.20;20.80;;;;;;5071728;28;20600;-66
2021/06/25 11:59:05;;;;;;;10.13;2.63;;;29.20;20.90;;;;;;5073241;28;20064;-66
2021/06/25 12:01:32;;;;;;;12.85;2.10;;;29.10;21.20;;;;;;5072679;28;20111;-66
2021/06/25 12:04:00;;;;;;;7.32;1.75;;;29.00;21.10;;;;;;5071804;28;20092;-66
2021/06/25 12:06:28;;;;;;;6.15;1.75;;;28.90;21.80;;;;;;5074113;28;20069;-65
2021/06/25 12:09:06;;;;;;;5.65;1.88;;;28.90;21.30;;;;;;5069481;28;20076;-66
2021/06/25 12:11:36;;;;;;;6.88;1.90;;;28.90;21.40;;;;;;5073189;28;20167;-67
2021/06/25 12:14:04;;;;;;;7.78;1.88;;;28.80;21.60;;;;;;5074742;28;20076;-68
2021/06/25 12:16:33;;;;;;;11.95;1.90;;;28.70;21.60;;;;;;5073035;28;20561;-66
2021/06/25 12:19:01;;;;;;;5.13;1.60;;;28.70;22.00;;;;;;5072105;28;20072;-66
2021/06/25 12:21:29;;;;;;;6.55;1.60;;;28.70;22.10;;;;;;5073272;28;20077;-66
2021/06/25 12:23:58;;;;;;;8.00;1.88;;;28.60;22.40;;;;;;5075707;28;20546;-66
2021/06/25 12:26:26;;;;;;;9.82;1.98;;;28.60;22.50;;;;;;5070759;28;20190;-66
2021/06/25 12:28:55;;;;;;;10.88;2.03;;;28.50;22.60;;;;;;5072531;28;20082;-67
2021/06/25 12:31:28;;;;;;;7.78;1.92;;;28.50;22.80;;;;;;5056260;28;20088;-67
2021/06/25 12:34:16;;;;;;;10.10;2.30;;;28.40;23.20;;;;;;5055735;28;20069;-66
2021/06/25 12:36:43;;;;;;;6.00;2.03;;;28.40;23.20;;;;;;5074166;28;20896;-65
2021/06/25 12:39:12;;;;;;;7.10;2.33;;;28.30;23.30;;;;;;5073218;28;20073;-65
2021/06/25 12:41:47;;;;;;;8.95;2.10;;;28.30;23.20;;;;;;5076292;28;20085;-65
2021/06/25 12:44:14;;;;;;;9.48;2.17;;;28.20;23.70;;;;;;5054703;28;20068;-65
2021/06/25 12:46:41;;;;;;;9.60;2.00;;;28.10;23.70;;;;;;5071668;28;20076;-65
2021/06/25 12:49:08;;;;;;;11.10;2.25;;;28.20;24.40;;;;;;5074245;28;20437;-65
2021/06/25 12:51:37;;;;;;;15.73;2.60;;;28.10;24.50;;;;;;5053745;28;20101;-65
2021/06/25 12:54:06;;;;;;;22.58;5.18;;;28.20;24.50;;;;;;5071324;28;21188;-65
2021/06/25 12:56:41;;;;;;;19.58;3.10;;;28.10;25.30;;;;;;5071810;28;20077;-65
2021/06/25 12:59:20;;;;;;;11.95;2.60;;;28.00;24.90;;;;;;5073521;28;20087;-65
2021/06/25 13:01:56;;;;;;;12.38;3.10;;;27.80;24.50;;;;;;5070918;28;20135;-65
2021/06/25 13:04:25;;;;;;;16.92;2.65;;;27.70;25.00;;;;;;5075500;28;20068;-65
2021/06/25 13:06:55;;;;;;;14.02;3.00;;;27.70;25.30;;;;;;5058883;28;20573;-66